createdAt,value
2019-02-10T00:02:01.686Z,84.63
2019-02-10T00:04:31.145Z,85.50
2019-02-10T00:07:00.518Z,84.88
2019-02-10T00:09:29.935Z,85.30
2019-02-10T00:11:59.292Z,84.99
2019-02-10T00:14:28.722Z,85.38
2019-02-10T00:16:58.133Z,85.86
2019-02-10T00:19:27.491Z,86.47
2019-02-10T00:21:56.821Z,86.82
2019-02-10T00:24:26.223Z,86.60
2019-02-10T00:26:55.684Z,86.29
2019-02-10T00:29:25.047Z,86.10
2019-02-10T00:31:54.523Z,86.70
2019-02-10T00:34:23.935Z,86.54
2019-02-10T00:36:53.414Z,87.11
2019-02-10T00:39:22.834Z,87.34
2019-02-10T00:41:52.223Z,87.29
2019-02-10T00:44:21.690Z,87.27
2019-02-10T00:46:50.995Z,87.48
2019-02-10T00:49:20.380Z,87.50
2019-02-10T00:51:49.775Z,87.10
2019-02-10T00:54:19.177Z,86.70
2019-02-10T00:56:48.580Z,87.10
2019-02-10T00:59:18.026Z,87.53
2019-02-10T01:01:47.506Z,87.89
2019-02-10T01:04:16.878Z,87.90
2019-02-10T01:06:46.265Z,87.79
2019-02-10T01:09:15.855Z,87.68
2019-02-10T01:11:45.220Z,87.82
2019-02-10T01:14:14.604Z,87.54
2019-02-10T01:16:43.975Z,87.31
2019-02-10T01:19:13.547Z,87.03
2019-02-10T01:21:44.619Z,86.94
2019-02-10T01:24:13.983Z,86.88
2019-02-10T01:26:43.537Z,86.19
2019-02-10T01:29:12.926Z,86.73
2019-02-10T01:31:42.329Z,87.18
2019-02-10T01:34:11.742Z,87.20
2019-02-10T01:36:49.176Z,87.19
2019-02-10T01:39:17.788Z,87.25
2019-02-10T01:41:47.231Z,87.25
2019-02-10T01:44:16.564Z,86.94
2019-02-10T01:46:45.963Z,86.64
2019-02-10T01:49:15.403Z,86.64
2019-02-10T01:51:44.807Z,86.92
2019-02-10T01:54:14.210Z,87.25
2019-02-10T01:56:43.622Z,86.70
2019-02-10T01:59:13.144Z,87.08
2019-02-10T02:01:42.500Z,87.69
2019-02-10T02:04:11.968Z,87.75
2019-02-10T02:06:41.373Z,87.51
2019-02-10T02:09:12.851Z,87.42
2019-02-10T02:11:42.371Z,87.77
2019-02-10T02:14:11.794Z,87.87
2019-02-10T02:16:41.133Z,88.80
2019-02-10T02:19:10.597Z,89.92
2019-02-10T02:21:40.043Z,90.65
2019-02-10T02:24:09.450Z,91.03
2019-02-10T02:26:38.904Z,91.27
2019-02-10T02:29:08.348Z,91.63
2019-02-10T02:31:37.751Z,91.75
2019-02-10T02:34:07.152Z,91.87
2019-02-10T02:36:42.374Z,92.37
2019-02-10T02:39:11.860Z,92.64
2019-02-10T02:41:41.194Z,92.54
2019-02-10T02:44:10.668Z,92.21
2019-02-10T02:46:40.100Z,92.08
2019-02-10T02:49:09.455Z,91.80
2019-02-10T02:51:38.925Z,91.98
2019-02-10T02:54:08.659Z,92.26
2019-02-10T02:56:38.086Z,92.30
2019-02-10T02:59:07.426Z,92.21
2019-02-10T03:01:36.795Z,92.21
2019-02-10T03:04:06.173Z,92.17
2019-02-10T03:06:47.961Z,92.63
2019-02-10T03:09:17.519Z,92.68
2019-02-10T03:11:47.126Z,92.50
2019-02-10T03:14:16.575Z,92.05
2019-02-10T03:16:45.997Z,92.42
2019-02-10T03:19:15.463Z,92.08
2019-02-10T03:21:44.963Z,92.26
2019-02-10T03:24:14.462Z,92.29
2019-02-10T03:26:43.830Z,92.58
2019-02-10T03:29:13.205Z,92.80
2019-02-10T03:31:42.653Z,92.93
2019-02-10T03:34:12.055Z,93.13
2019-02-10T03:36:41.447Z,93.37
2019-02-10T03:39:10.830Z,93.41
2019-02-10T03:41:40.289Z,93.31
2019-02-10T03:44:09.645Z,93.14
2019-02-10T03:46:39.028Z,92.65
2019-02-10T03:49:08.467Z,92.13
2019-02-10T03:51:37.798Z,92.30
2019-02-10T03:54:07.287Z,92.18
2019-02-10T03:56:36.591Z,91.95
2019-02-10T03:59:05.996Z,91.27
2019-02-10T04:01:35.364Z,90.78
2019-02-10T04:04:04.744Z,90.39
2019-02-10T04:06:34.162Z,90.10
2019-02-10T04:09:04.865Z,90.11
2019-02-10T04:11:34.283Z,90.35
2019-02-10T04:14:03.729Z,90.18
2019-02-10T04:16:33.079Z,90.48
2019-02-10T04:19:02.464Z,90.05
2019-02-10T04:21:31.883Z,89.44
2019-02-10T04:24:01.480Z,88.91
2019-02-10T04:26:30.846Z,89.19
2019-02-10T04:29:00.266Z,89.14
2019-02-10T04:31:29.692Z,89.42
2019-02-10T04:33:59.038Z,89.54
2019-02-10T04:36:28.436Z,90.12
2019-02-10T04:38:57.869Z,90.28
2019-02-10T04:41:27.226Z,90.07
2019-02-10T04:43:56.625Z,89.84
2019-02-10T04:46:26.047Z,89.34
2019-02-10T04:48:55.399Z,89.76
2019-02-10T04:51:24.741Z,89.63
2019-02-10T04:53:54.089Z,89.21
2019-02-10T04:56:23.459Z,89.42
2019-02-10T04:58:52.869Z,89.54
2019-02-10T05:01:22.262Z,90.19
2019-02-10T05:03:52.751Z,90.75
2019-02-10T05:06:22.172Z,90.86
2019-02-10T05:08:51.584Z,90.98
2019-02-10T05:11:20.927Z,90.76
2019-02-10T05:13:50.333Z,90.75
2019-02-10T05:16:19.733Z,91.29
2019-02-10T05:18:49.070Z,91.33
2019-02-10T05:21:18.436Z,91.22
2019-02-10T05:23:47.826Z,91.59
2019-02-10T05:26:17.196Z,91.53
2019-02-10T05:28:46.554Z,91.17
2019-02-10T05:31:15.967Z,91.17
2019-02-10T05:33:45.378Z,91.40
2019-02-10T05:36:14.736Z,91.53
2019-02-10T05:38:44.147Z,91.01
2019-02-10T05:41:13.490Z,90.69
2019-02-10T05:43:42.870Z,90.39
2019-02-10T05:46:12.322Z,90.55
2019-02-10T05:48:41.717Z,90.20
2019-02-10T05:51:11.166Z,90.67
2019-02-10T05:53:40.592Z,90.49
2019-02-10T05:56:10.085Z,89.25
2019-02-10T05:58:39.447Z,88.40
2019-02-10T06:01:44.677Z,87.58
2019-02-10T06:04:14.184Z,87.12
2019-02-10T06:06:43.555Z,85.03
2019-02-10T06:09:13.010Z,85.63
2019-02-10T06:11:42.423Z,85.45
2019-02-10T06:14:11.799Z,84.18
2019-02-10T06:16:41.236Z,81.19
2019-02-10T06:19:10.618Z,79.71
2019-02-10T06:21:40.141Z,79.71
2019-02-10T06:24:09.587Z,78.51
2019-02-10T06:26:38.988Z,77.34
2019-02-10T06:29:08.488Z,75.81
2019-02-10T06:31:37.819Z,75.81
2019-02-10T06:34:07.274Z,73.85
2019-02-10T06:36:36.614Z,74.53
2019-02-10T06:39:07.030Z,74.92
2019-02-10T06:41:36.399Z,74.68
2019-02-10T06:44:05.735Z,73.18
2019-02-10T06:46:35.163Z,71.40
2019-02-10T06:49:04.525Z,71.14
2019-02-10T06:51:33.949Z,70.41
2019-02-10T06:54:03.343Z,70.68
2019-02-10T06:56:33.105Z,71.53
2019-02-10T06:59:02.484Z,71.62
2019-02-10T07:01:45.359Z,70.12
2019-02-10T07:04:22.343Z,69.17
2019-02-10T07:06:51.779Z,68.05
2019-02-10T07:09:22.830Z,68.49
2019-02-10T07:11:52.285Z,68.10
2019-02-10T07:14:25.271Z,68.16
2019-02-10T07:17:15.884Z,67.52
2019-02-10T07:20:31.047Z,66.80
2019-02-10T07:23:35.570Z,66.41
2019-02-10T07:26:21.948Z,64.76
2019-02-10T07:29:24.782Z,64.30
2019-02-10T07:32:20.172Z,63.24
2019-02-10T07:35:45.735Z,62.60
2019-02-10T07:38:40.814Z,61.47
2019-02-10T07:42:12.224Z,60.99
2019-02-10T07:45:18.190Z,59.71
2019-02-10T07:48:34.227Z,60.82
2019-02-10T07:51:46.270Z,60.33
2019-02-10T07:55:05.649Z,58.25
2019-02-10T07:58:24.769Z,58.09
2019-02-10T08:01:29.270Z,57.71
2019-02-10T08:04:32.820Z,56.91
2019-02-10T08:07:35.784Z,57.50
2019-02-10T08:10:34.704Z,57.56
2019-02-10T08:13:19.197Z,55.05
2019-02-10T08:16:32.712Z,55.97
2019-02-10T08:19:33.094Z,55.75
2019-02-10T08:22:40.529Z,55.80
2019-02-10T08:26:02.856Z,54.69
2019-02-10T08:29:06.655Z,54.88
2019-02-10T08:32:42.624Z,54.45
2019-02-10T08:35:36.193Z,54.62
2019-02-10T08:38:30.047Z,53.70
2019-02-10T08:41:40.359Z,52.50
2019-02-10T08:44:49.205Z,52.32
2019-02-10T08:47:41.159Z,52.90
2019-02-10T08:50:59.215Z,52.76
2019-02-10T08:53:38.005Z,53.63
2019-02-10T08:56:07.431Z,52.19
2019-02-10T08:58:36.805Z,52.37
2019-02-10T09:01:06.209Z,51.79
2019-02-10T09:03:35.714Z,50.98
2019-02-10T09:06:05.062Z,49.79
2019-02-10T09:08:34.465Z,50.31
2019-02-10T09:11:03.960Z,50.34
2019-02-10T09:13:33.309Z,49.60
2019-02-10T09:16:02.786Z,48.98
2019-02-10T09:18:32.536Z,48.91
2019-02-10T09:21:02.001Z,50.30
2019-02-10T09:23:31.439Z,50.12
2019-02-10T09:26:01.162Z,49.34
2019-02-10T09:28:30.600Z,49.73
2019-02-10T09:30:59.956Z,49.75
2019-02-10T09:33:29.422Z,49.64
2019-02-10T09:35:58.896Z,48.99
2019-02-10T09:38:28.421Z,48.24
2019-02-10T09:40:57.975Z,48.98
2019-02-10T09:43:27.315Z,48.19
2019-02-10T09:45:57.155Z,47.69
2019-02-10T09:48:26.872Z,48.15
2019-02-10T09:50:56.243Z,47.43
2019-02-10T09:53:25.635Z,46.62
2019-02-10T09:55:55.007Z,46.53
2019-02-10T09:58:24.342Z,46.50
2019-02-10T10:00:53.715Z,47.28
2019-02-10T10:03:23.103Z,47.14
2019-02-10T10:05:52.547Z,46.41
2019-02-10T10:08:21.956Z,46.20
2019-02-10T10:10:51.367Z,45.80
2019-02-10T10:13:20.795Z,45.47
2019-02-10T10:15:50.237Z,44.15
2019-02-10T10:18:19.755Z,44.22
2019-02-10T10:20:49.451Z,44.08
2019-02-10T10:23:18.870Z,43.08
2019-02-10T10:25:49.141Z,42.57
2019-02-10T10:28:18.462Z,43.03
2019-02-10T10:30:47.897Z,41.62
2019-02-10T10:33:18.330Z,42.34
2019-02-10T10:35:47.722Z,42.35
2019-02-10T10:38:17.155Z,41.52
2019-02-10T10:40:46.667Z,41.82
2019-02-10T10:43:15.990Z,41.47
2019-02-10T10:45:45.370Z,42.18
2019-02-10T10:48:14.749Z,42.20
2019-02-10T10:50:44.063Z,41.48
2019-02-10T10:53:13.459Z,41.33
2019-02-10T10:55:43.765Z,40.16
2019-02-10T10:58:13.115Z,39.80
2019-02-10T11:00:42.922Z,40.06
2019-02-10T11:03:12.291Z,40.13
2019-02-10T11:05:42.253Z,39.45
2019-02-10T11:08:11.654Z,37.42
2019-02-10T11:10:41.110Z,37.43
2019-02-10T11:13:10.514Z,37.23
2019-02-10T11:15:39.930Z,36.60
2019-02-10T11:18:09.250Z,37.06
2019-02-10T11:20:39.003Z,36.79
2019-02-10T11:23:08.407Z,36.43
2019-02-10T11:25:37.798Z,36.16
2019-02-10T11:28:07.276Z,36.76
2019-02-10T11:30:36.623Z,35.64
2019-02-10T11:33:06.111Z,35.36
2019-02-10T11:35:35.518Z,35.75
2019-02-10T11:38:04.925Z,35.43
2019-02-10T11:40:34.359Z,36.29
2019-02-10T11:43:03.703Z,35.69
2019-02-10T11:45:33.169Z,35.51
2019-02-10T11:48:02.575Z,35.10
2019-02-10T11:50:31.964Z,35.38
2019-02-10T11:53:01.387Z,35.20
2019-02-10T11:55:30.834Z,34.71
2019-02-10T11:58:01.152Z,35.72
2019-02-10T12:00:30.523Z,35.17
2019-02-10T12:02:59.913Z,35.24
2019-02-10T12:05:29.315Z,34.00
2019-02-10T12:07:58.647Z,33.91
2019-02-10T12:10:28.097Z,34.34
2019-02-10T12:12:57.431Z,34.29
2019-02-10T12:15:27.282Z,33.69
2019-02-10T12:17:57.035Z,34.08
2019-02-10T12:20:26.442Z,34.39
2019-02-10T12:22:55.821Z,34.87
2019-02-10T12:25:25.163Z,34.87
2019-02-10T12:27:54.545Z,33.70
2019-02-10T12:30:23.917Z,33.64
2019-02-10T12:32:53.365Z,33.83
2019-02-10T12:35:22.773Z,34.16
2019-02-10T12:37:52.176Z,33.19
2019-02-10T12:40:21.552Z,33.55
2019-02-10T12:42:50.898Z,33.42
2019-02-10T12:45:20.269Z,33.42
2019-02-10T12:47:49.682Z,33.85
2019-02-10T12:50:19.095Z,33.61
2019-02-10T12:52:48.471Z,33.60
2019-02-10T12:55:17.857Z,33.25
2019-02-10T12:57:47.491Z,34.27
2019-02-10T13:00:17.336Z,33.80
2019-02-10T13:02:47.471Z,33.94
2019-02-10T13:05:16.853Z,33.82
2019-02-10T13:07:46.702Z,34.06
2019-02-10T13:10:18.206Z,34.31
2019-02-10T13:12:47.345Z,34.50
2019-02-10T13:15:16.704Z,34.17
2019-02-10T13:17:46.186Z,34.02
2019-02-10T13:20:16.188Z,34.73
2019-02-10T13:22:45.574Z,34.89
2019-02-10T13:25:15.085Z,34.78
2019-02-10T13:27:44.383Z,34.60
2019-02-10T13:30:14.087Z,34.76
2019-02-10T13:32:43.435Z,34.56
2019-02-10T13:35:12.945Z,34.36
2019-02-10T13:37:42.296Z,34.52
2019-02-10T13:40:17.163Z,34.86
2019-02-10T13:42:46.661Z,34.40
2019-02-10T13:45:16.019Z,34.95
2019-02-10T13:47:45.430Z,35.33
2019-02-10T13:50:15.519Z,35.20
2019-02-10T13:52:44.885Z,35.64
2019-02-10T13:55:14.320Z,35.00
2019-02-10T13:57:43.766Z,35.81
2019-02-10T14:00:15.518Z,35.58
2019-02-10T14:02:44.973Z,35.94
2019-02-10T14:05:14.359Z,35.80
2019-02-10T14:07:45.677Z,36.58
2019-02-10T14:10:15.168Z,36.76
2019-02-10T14:12:44.652Z,37.08
2019-02-10T14:15:14.475Z,37.09
2019-02-10T14:17:44.153Z,37.10
2019-02-10T14:20:15.583Z,37.13
2019-02-10T14:22:44.936Z,37.42
2019-02-10T14:25:14.394Z,38.08
2019-02-10T14:27:44.330Z,37.67
2019-02-10T14:30:16.982Z,38.10
2019-02-10T14:32:46.295Z,38.04
2019-02-10T14:35:15.694Z,38.14
2019-02-10T14:37:45.165Z,38.22
2019-02-10T14:40:14.712Z,38.54
2019-02-10T14:42:44.118Z,38.50
2019-02-10T14:45:13.658Z,38.81
2019-02-10T14:47:43.060Z,38.58
2019-02-10T14:50:13.955Z,38.43
2019-02-10T14:52:43.302Z,39.21
2019-02-10T14:55:13.021Z,38.99
2019-02-10T14:57:42.432Z,39.15
2019-02-10T15:00:13.000Z,38.87
2019-02-10T15:02:42.467Z,39.08
2019-02-10T15:05:12.303Z,39.44
2019-02-10T15:07:41.695Z,39.80
2019-02-10T15:10:12.328Z,40.17
2019-02-10T15:12:41.699Z,40.30
2019-02-10T15:15:11.483Z,40.29
2019-02-10T15:17:40.936Z,40.45
2019-02-10T15:20:10.428Z,41.22
2019-02-10T15:22:40.200Z,41.30
2019-02-10T15:25:09.775Z,41.08
2019-02-10T15:27:39.209Z,41.40
2019-02-10T15:30:10.075Z,41.48
2019-02-10T15:32:39.502Z,41.65
2019-02-10T15:35:09.073Z,41.92
2019-02-10T15:37:38.442Z,42.35
2019-02-10T15:40:08.268Z,42.67
2019-02-10T15:42:37.706Z,43.04
2019-02-10T15:45:07.991Z,43.57
2019-02-10T15:47:37.416Z,42.65
2019-02-10T15:50:07.223Z,43.03
2019-02-10T15:52:36.602Z,43.26
2019-02-10T15:55:06.475Z,43.70
2019-02-10T15:57:35.913Z,43.82
2019-02-10T16:00:07.122Z,43.68
2019-02-10T16:02:36.689Z,43.82
2019-02-10T16:05:06.518Z,43.41
2019-02-10T16:07:36.012Z,43.21
2019-02-10T16:10:06.217Z,43.06
2019-02-10T16:12:35.651Z,43.29
2019-02-10T16:15:05.242Z,43.51
2019-02-10T16:17:34.604Z,43.37
2019-02-10T16:20:04.165Z,44.14
2019-02-10T16:22:33.594Z,43.85
2019-02-10T16:25:03.024Z,44.41
2019-02-10T16:27:32.477Z,44.05
2019-02-10T16:30:01.852Z,44.72
2019-02-10T16:32:31.261Z,45.02
2019-02-10T16:35:00.646Z,45.18
2019-02-10T16:37:30.024Z,45.42
2019-02-10T16:39:59.369Z,44.99
2019-02-10T16:42:28.744Z,44.70
2019-02-10T16:44:58.147Z,45.05
2019-02-10T16:47:27.586Z,45.26
2019-02-10T16:49:56.978Z,46.01
2019-02-10T16:52:26.426Z,46.46
2019-02-10T16:54:57.628Z,46.01
2019-02-10T16:57:27.095Z,46.02
2019-02-10T17:00:00.806Z,45.83
2019-02-10T17:02:30.207Z,46.81
2019-02-10T17:04:59.625Z,48.11
2019-02-10T17:07:29.050Z,48.52
2019-02-10T17:10:01.612Z,48.40
2019-02-10T17:12:33.002Z,47.98
2019-02-10T17:15:02.191Z,48.55
2019-02-10T17:17:31.622Z,49.60
2019-02-10T17:20:01.079Z,49.75
2019-02-10T17:22:31.358Z,49.24
2019-02-10T17:25:01.039Z,49.18
2019-02-10T17:27:30.434Z,48.74
2019-02-10T17:29:59.913Z,49.21
2019-02-10T17:32:29.273Z,49.41
2019-02-10T17:35:00.670Z,50.11
2019-02-10T17:37:30.110Z,49.97
2019-02-10T17:39:59.821Z,50.15
2019-02-10T17:42:31.012Z,50.81
2019-02-10T17:45:01.725Z,51.21
2019-02-10T17:47:31.425Z,51.62
2019-02-10T17:50:00.809Z,52.44
2019-02-10T17:52:32.072Z,51.99
2019-02-10T17:55:01.337Z,51.90
2019-02-10T17:57:33.491Z,52.00
2019-02-10T18:00:06.485Z,52.88
2019-02-10T18:02:36.115Z,54.07
2019-02-10T18:05:05.612Z,55.78
2019-02-10T18:07:38.384Z,56.99
2019-02-10T18:10:08.698Z,56.94
2019-02-10T18:12:38.144Z,57.87
2019-02-10T18:15:25.743Z,58.70
2019-02-10T18:18:29.368Z,58.69
2019-02-10T18:21:20.605Z,59.26
2019-02-10T18:24:07.613Z,59.64
2019-02-10T18:26:57.555Z,59.92
2019-02-10T18:29:48.957Z,60.25
2019-02-10T18:32:43.365Z,61.36
2019-02-10T18:35:31.226Z,61.84
2019-02-10T18:38:11.490Z,62.14
2019-02-10T18:40:59.837Z,62.42
2019-02-10T18:43:49.521Z,62.83
2019-02-10T18:46:26.143Z,63.19
2019-02-10T18:49:13.590Z,63.63
2019-02-10T18:52:00.824Z,63.63
2019-02-10T18:54:55.230Z,62.82
2019-02-10T18:57:34.667Z,62.78
2019-02-10T19:00:32.793Z,62.81
2019-02-10T19:03:24.233Z,62.42
2019-02-10T19:06:12.523Z,62.37
2019-02-10T19:09:03.915Z,62.30
2019-02-10T19:11:49.498Z,62.21
2019-02-10T19:14:44.272Z,62.20
2019-02-10T19:17:20.144Z,62.26
2019-02-10T19:20:09.229Z,62.89
2019-02-10T19:22:56.536Z,62.58
2019-02-10T19:25:34.600Z,63.28
2019-02-10T19:28:21.617Z,62.57
2019-02-10T19:31:05.230Z,61.77
2019-02-10T19:33:45.113Z,60.96
2019-02-10T19:36:39.541Z,60.89
2019-02-10T19:39:26.855Z,60.66
2019-02-10T19:42:14.198Z,60.57
2019-02-10T19:45:11.408Z,60.53
2019-02-10T19:48:17.945Z,61.09
2019-02-10T19:51:12.960Z,61.47
2019-02-10T19:53:53.394Z,60.95
2019-02-10T19:56:48.312Z,61.00
2019-02-10T19:59:45.481Z,61.40
2019-02-10T20:02:36.577Z,61.54
2019-02-10T20:05:31.489Z,61.94
2019-02-10T20:08:32.262Z,62.54
2019-02-10T20:11:17.898Z,63.20
2019-02-10T20:13:56.895Z,63.55
2019-02-10T20:17:03.743Z,63.82
2019-02-10T20:19:38.999Z,64.36
2019-02-10T20:22:16.293Z,64.85
2019-02-10T20:25:08.171Z,65.00
2019-02-10T20:28:11.587Z,65.08
2019-02-10T20:31:09.291Z,64.86
2019-02-10T20:33:56.155Z,65.23
2019-02-10T20:36:42.549Z,65.13
2019-02-10T20:39:29.191Z,65.10
2019-02-10T20:42:20.344Z,65.38
2019-02-10T20:45:04.311Z,65.21
2019-02-10T20:47:55.685Z,65.84
2019-02-10T20:50:56.109Z,66.42
2019-02-10T20:53:56.457Z,67.13
2019-02-10T20:56:50.648Z,68.21
2019-02-10T20:59:32.176Z,68.28
2019-02-10T21:02:32.457Z,68.85
2019-02-10T21:05:09.943Z,69.32
2019-02-10T21:07:52.522Z,69.95
2019-02-10T21:10:33.002Z,70.32
2019-02-10T21:13:21.343Z,70.67
2019-02-10T21:16:09.658Z,70.67
2019-02-10T21:18:59.906Z,70.63
2019-02-10T21:21:45.057Z,70.15
2019-02-10T21:24:33.348Z,70.46
2019-02-10T21:27:10.932Z,70.90
2019-02-10T21:30:08.385Z,71.29
2019-02-10T21:32:54.178Z,71.71
2019-02-10T21:35:39.373Z,72.38
2019-02-10T21:38:33.883Z,72.81
2019-02-10T21:41:24.574Z,72.81
2019-02-10T21:44:02.618Z,73.18
2019-02-10T21:47:00.203Z,73.52
2019-02-10T21:49:30.595Z,73.48
2019-02-10T21:52:20.493Z,74.61
2019-02-10T21:54:50.024Z,74.61
2019-02-10T21:57:19.436Z,74.82
2019-02-10T21:59:48.940Z,75.64
2019-02-10T22:02:18.335Z,75.64
2019-02-10T22:04:47.721Z,75.34
2019-02-10T22:07:17.173Z,75.86
2019-02-10T22:09:46.606Z,76.21
2019-02-10T22:12:16.059Z,76.53
2019-02-10T22:14:45.453Z,76.50
2019-02-10T22:17:14.848Z,76.61
2019-02-10T22:19:44.326Z,77.16
2019-02-10T22:22:13.811Z,77.29
2019-02-10T22:24:43.259Z,77.40
2019-02-10T22:27:12.618Z,77.81
2019-02-10T22:29:41.971Z,77.66
2019-02-10T22:32:11.399Z,77.61
2019-02-10T22:34:40.761Z,77.55
2019-02-10T22:37:10.152Z,77.61
2019-02-10T22:39:39.560Z,77.51
2019-02-10T22:42:09.006Z,77.40
2019-02-10T22:44:38.457Z,77.23
2019-02-10T22:47:07.891Z,76.64
2019-02-10T22:49:37.751Z,77.28
2019-02-10T22:52:07.130Z,77.45
2019-02-10T22:54:36.629Z,77.41
2019-02-10T22:57:06.097Z,77.34
2019-02-10T22:59:35.453Z,77.46
2019-02-10T23:02:04.938Z,77.96
2019-02-10T23:04:34.352Z,77.84
2019-02-10T23:07:03.831Z,77.85
2019-02-10T23:09:33.304Z,78.03
2019-02-10T23:12:02.757Z,77.58
2019-02-10T23:14:32.220Z,77.66
2019-02-10T23:17:01.586Z,77.26
2019-02-10T23:19:30.983Z,77.45
2019-02-10T23:22:00.364Z,78.04
2019-02-10T23:24:29.786Z,78.06
2019-02-10T23:26:59.196Z,77.95
2019-02-10T23:29:28.580Z,77.97
2019-02-10T23:32:00.497Z,77.84
2019-02-10T23:34:32.690Z,78.33
2019-02-10T23:37:02.202Z,77.47
2019-02-10T23:39:31.621Z,77.26
2019-02-10T23:42:01.060Z,77.10
2019-02-10T23:44:30.562Z,77.24
2019-02-10T23:46:59.945Z,77.22
2019-02-10T23:49:29.396Z,76.95
2019-02-10T23:51:58.802Z,77.14
2019-02-10T23:54:28.211Z,77.19
2019-02-10T23:56:58.181Z,76.94
2019-02-10T23:59:27.539Z,77.45
